createdAt,value
2022-09-26T00:03:14.390Z,13.52
2022-09-26T00:08:18.408Z,12.87
2022-09-26T00:13:23.697Z,13.80
2022-09-26T00:18:27.925Z,13.12
2022-09-26T00:23:31.850Z,12.97
2022-09-26T00:28:37.408Z,13.77
2022-09-26T00:33:41.453Z,13.59
2022-09-26T00:38:46.911Z,13.99
2022-09-26T00:43:53.853Z,13.51
2022-09-26T00:49:07.995Z,14.25
2022-09-26T00:54:14.707Z,14.11
2022-09-26T00:59:24.361Z,14.29
2022-09-26T01:04:30.480Z,13.94
2022-09-26T01:09:35.015Z,14.24
2022-09-26T01:14:42.998Z,14.60
2022-09-26T01:20:00.810Z,13.85
2022-09-26T01:25:23.332Z,13.86
2022-09-26T01:30:35.311Z,14.00
2022-09-26T01:36:02.055Z,14.30
2022-09-26T01:41:12.875Z,13.81
2022-09-26T01:46:27.550Z,14.48
2022-09-26T01:51:34.812Z,14.53
2022-09-26T01:56:41.509Z,14.35
2022-09-26T02:01:49.751Z,14.45
2022-09-26T02:06:59.583Z,14.60
2022-09-26T02:12:08.601Z,14.81
2022-09-26T02:17:22.923Z,14.67
2022-09-26T02:22:29.113Z,14.62
2022-09-26T02:27:33.151Z,15.18
2022-09-26T02:32:40.573Z,15.04
2022-09-26T02:37:44.635Z,14.92
2022-09-26T02:42:55.238Z,15.09
2022-09-26T02:48:39.943Z,14.63
2022-09-26T02:54:00.097Z,14.76
2022-09-26T02:59:22.660Z,14.52
2022-09-26T03:04:37.805Z,15.05
2022-09-26T03:09:44.740Z,15.02
2022-09-26T03:14:58.450Z,13.80
2022-09-26T03:20:10.221Z,14.18
2022-09-26T03:25:20.828Z,12.76
2022-09-26T03:30:42.834Z,13.43
2022-09-26T03:36:09.595Z,13.90
2022-09-26T03:41:17.144Z,13.26
2022-09-26T03:46:40.246Z,13.56
2022-09-26T03:51:47.676Z,13.06
2022-09-26T03:56:51.681Z,13.18
2022-09-26T04:01:55.724Z,12.99
2022-09-26T04:07:02.056Z,13.08
2022-09-26T04:12:06.245Z,13.01
2022-09-26T04:17:13.234Z,13.19
2022-09-26T04:22:21.765Z,13.38
2022-09-26T04:27:28.892Z,13.85
2022-09-26T04:32:33.681Z,13.66
2022-09-26T04:38:13.623Z,13.81
2022-09-26T04:43:17.523Z,13.82
2022-09-26T04:48:21.763Z,14.44
2022-09-26T04:53:51.395Z,14.71
2022-09-26T04:59:02.340Z,14.68
2022-09-26T05:04:27.764Z,15.16
2022-09-26T05:09:36.146Z,15.02
2022-09-26T05:14:44.775Z,14.69
2022-09-26T05:19:48.838Z,15.12
2022-09-26T05:25:17.878Z,15.19
2022-09-26T05:30:21.855Z,15.21
2022-09-26T05:35:28.330Z,15.01
2022-09-26T05:40:51.454Z,14.84
2022-09-26T05:45:58.680Z,14.85
2022-09-26T05:51:09.224Z,15.30
2022-09-26T05:56:19.743Z,15.03
2022-09-26T06:01:39.106Z,15.48
2022-09-26T06:06:54.234Z,15.11
2022-09-26T06:11:59.781Z,15.69
2022-09-26T06:17:04.310Z,14.37
2022-09-26T06:22:08.425Z,15.32
2022-09-26T06:27:13.752Z,16.26
2022-09-26T06:32:17.874Z,15.92
2022-09-26T06:37:56.301Z,16.57
2022-09-26T06:43:02.105Z,16.31
2022-09-26T06:48:25.113Z,16.23
2022-09-26T06:53:49.266Z,15.96
2022-09-26T06:58:58.794Z,15.61
2022-09-26T07:04:09.492Z,15.07
2022-09-26T07:09:33.789Z,15.51
2022-09-26T07:15:04.133Z,15.92
2022-09-26T07:20:11.110Z,16.94
2022-09-26T07:25:33.806Z,17.04
2022-09-26T07:30:40.727Z,17.16
2022-09-26T07:35:52.107Z,17.23
2022-09-26T07:41:00.906Z,17.17
2022-09-26T07:46:24.379Z,17.23
2022-09-26T07:51:31.549Z,17.39
2022-09-26T07:56:38.461Z,17.16
2022-09-26T08:02:07.358Z,16.78
2022-09-26T08:07:18.684Z,17.14
2022-09-26T08:12:36.759Z,16.59
2022-09-26T08:18:00.874Z,17.94
2022-09-26T08:23:04.998Z,17.51
2022-09-26T08:28:12.958Z,16.95
2022-09-26T08:33:21.279Z,16.45
2022-09-26T08:38:25.587Z,17.05
2022-09-26T08:44:02.811Z,17.29
2022-09-26T08:49:41.882Z,16.92
2022-09-26T08:54:48.501Z,16.90
2022-09-26T08:59:54.620Z,17.18
2022-09-26T09:05:06.203Z,16.95
2022-09-26T09:10:19.262Z,17.22
2022-09-26T09:15:46.620Z,16.00
2022-09-26T09:21:09.730Z,15.88
2022-09-26T09:32:29.393Z,14.48
2022-09-26T09:37:54.410Z,14.74
2022-09-26T09:43:26.141Z,13.78
2022-09-26T09:48:30.285Z,13.10
2022-09-26T09:53:53.886Z,13.43
2022-09-26T09:59:14.068Z,13.94
2022-09-26T10:04:40.894Z,13.78
2022-09-26T10:09:46.329Z,13.64
2022-09-26T10:15:07.739Z,14.02
2022-09-26T10:20:36.466Z,13.95
2022-09-26T10:25:48.621Z,13.99
2022-09-26T10:30:57.174Z,13.93
2022-09-26T10:36:11.825Z,13.98
2022-09-26T10:41:26.506Z,14.11
2022-09-26T10:46:33.349Z,13.92
2022-09-26T10:52:04.617Z,13.97
2022-09-26T10:57:21.079Z,14.04
2022-09-26T11:02:26.520Z,14.14
2022-09-26T11:07:35.893Z,14.16
2022-09-26T11:13:03.578Z,14.40
2022-09-26T11:18:12.319Z,14.43
2022-09-26T11:23:31.882Z,14.61
2022-09-26T11:28:42.477Z,14.33
2022-09-26T11:34:02.525Z,14.02
2022-09-26T11:39:40.803Z,14.29
2022-09-26T11:44:55.618Z,14.51
2022-09-26T11:50:23.751Z,14.74
2022-09-26T11:56:11.712Z,14.29
2022-09-26T12:01:27.732Z,14.54
2022-09-26T12:06:37.301Z,14.27
2022-09-26T12:11:54.432Z,13.77
2022-09-26T12:17:08.690Z,14.16
2022-09-26T12:22:32.066Z,14.17
2022-09-26T12:27:46.211Z,14.57
2022-09-26T12:33:10.070Z,13.92
2022-09-26T12:38:33.017Z,14.37
2022-09-26T12:44:07.798Z,14.50
2022-09-26T12:49:34.528Z,14.37
2022-09-26T12:55:05.220Z,14.49
2022-09-26T13:00:18.743Z,13.77
2022-09-26T13:05:48.706Z,14.03
2022-09-26T13:11:11.380Z,14.24
2022-09-26T13:16:34.179Z,14.17
2022-09-26T13:21:48.741Z,13.75
2022-09-26T13:27:00.658Z,14.09
2022-09-26T13:32:15.957Z,14.58
2022-09-26T13:37:31.811Z,14.23
2022-09-26T13:42:46.768Z,14.28
2022-09-26T13:47:56.672Z,14.59
2022-09-26T13:53:11.231Z,15.10
2022-09-26T13:58:24.909Z,15.14
2022-09-26T14:03:42.683Z,15.11
2022-09-26T14:09:15.724Z,15.35
2022-09-26T14:14:25.260Z,15.24
2022-09-26T14:19:37.023Z,14.96
2022-09-26T14:24:42.681Z,14.82
2022-09-26T14:29:51.999Z,14.60
2022-09-26T14:34:59.306Z,14.76
2022-09-26T14:40:23.243Z,15.16
2022-09-26T14:45:33.850Z,15.19
2022-09-26T14:50:44.901Z,15.34
2022-09-26T14:56:00.641Z,15.43
2022-09-26T15:01:06.611Z,15.56
2022-09-26T15:06:13.979Z,15.32
2022-09-26T15:11:27.866Z,15.40
2022-09-26T15:16:38.198Z,15.31
2022-09-26T15:21:44.968Z,15.24
2022-09-26T15:26:51.187Z,15.14
2022-09-26T15:31:56.076Z,14.92
2022-09-26T15:37:02.249Z,15.12
2022-09-26T15:42:48.847Z,14.97
2022-09-26T15:47:53.282Z,15.21
2022-09-26T15:53:02.193Z,15.24
2022-09-26T15:58:08.777Z,15.27
2022-09-26T16:03:35.754Z,15.19
2022-09-26T16:08:43.163Z,15.24
2022-09-26T16:13:51.434Z,15.14
2022-09-26T16:18:58.664Z,15.13
2022-09-26T16:24:27.540Z,15.05
2022-09-26T16:29:35.272Z,14.81
2022-09-26T16:34:39.257Z,15.09
2022-09-26T16:39:44.082Z,14.96
2022-09-26T16:44:54.877Z,15.16
2022-09-26T16:50:16.961Z,14.77
2022-09-26T16:55:21.700Z,14.75
2022-09-26T17:00:49.952Z,14.80
2022-09-26T17:05:57.001Z,14.50
2022-09-26T17:11:02.875Z,14.52
2022-09-26T17:16:08.913Z,14.22
2022-09-26T17:21:14.836Z,14.77
2022-09-26T17:26:21.716Z,14.63
2022-09-26T17:31:27.349Z,14.81
2022-09-26T17:36:31.248Z,15.13
2022-09-26T17:41:37.897Z,15.04
2022-09-26T17:46:48.345Z,14.88
2022-09-26T17:51:56.023Z,15.16
2022-09-26T17:57:01.157Z,15.01
2022-09-26T18:02:20.145Z,15.15
2022-09-26T18:07:24.435Z,15.31
2022-09-26T18:12:28.168Z,15.31
2022-09-26T18:17:33.460Z,15.45
2022-09-26T18:22:37.235Z,15.50
2022-09-26T18:27:40.844Z,15.27
2022-09-26T18:32:50.756Z,15.41
2022-09-26T18:37:56.643Z,15.60
2022-09-26T18:43:00.185Z,15.44
2022-09-26T18:48:08.145Z,15.02
2022-09-26T18:53:14.551Z,13.97
2022-09-26T18:58:25.664Z,14.37
2022-09-26T19:03:33.284Z,14.75
2022-09-26T19:08:39.297Z,14.95
2022-09-26T19:13:43.812Z,15.00
2022-09-26T19:18:50.353Z,13.86
2022-09-26T19:23:54.945Z,13.03
2022-09-26T19:29:00.271Z,13.40
2022-09-26T19:34:05.767Z,13.75
2022-09-26T19:39:13.482Z,14.09
2022-09-26T19:44:17.260Z,14.25
2022-09-26T19:49:24.146Z,14.52
2022-09-26T19:54:28.434Z,14.13
2022-09-26T19:59:32.115Z,13.25
2022-09-26T20:04:37.441Z,12.84
2022-09-26T20:09:41.721Z,13.92
2022-09-26T20:14:46.037Z,12.98
2022-09-26T20:19:57.739Z,13.79
2022-09-26T20:25:05.090Z,13.91
2022-09-26T20:30:31.471Z,13.36
2022-09-26T20:35:40.983Z,13.02
2022-09-26T20:40:46.168Z,12.54
2022-09-26T20:45:50.562Z,12.01
2022-09-26T20:50:56.683Z,12.83
2022-09-26T20:56:00.734Z,12.91
2022-09-26T21:01:05.021Z,12.61
2022-09-26T21:06:17.499Z,12.60
2022-09-26T21:11:22.607Z,13.13
2022-09-26T21:16:26.824Z,13.07
2022-09-26T21:21:32.327Z,13.27
2022-09-26T21:26:55.586Z,13.61
2022-09-26T21:32:02.993Z,13.46
2022-09-26T21:37:11.167Z,13.54
2022-09-26T21:42:15.217Z,12.88
2022-09-26T21:47:19.322Z,12.71
2022-09-26T21:52:29.582Z,12.02
2022-09-26T21:57:39.667Z,12.16
2022-09-26T22:02:43.695Z,11.65
2022-09-26T22:07:51.768Z,12.56
2022-09-26T22:12:56.061Z,12.79
2022-09-26T22:18:00.007Z,13.00
2022-09-26T22:23:05.279Z,13.63
2022-09-26T22:28:09.362Z,12.41
2022-09-26T22:33:13.437Z,12.28
2022-09-26T22:38:19.312Z,13.20
2022-09-26T22:43:25.225Z,13.14
2022-09-26T22:48:31.573Z,13.52
2022-09-26T22:53:38.677Z,13.54
2022-09-26T22:58:46.344Z,13.30
2022-09-26T23:03:50.525Z,13.41
2022-09-26T23:08:55.773Z,12.91
2022-09-26T23:13:59.747Z,13.37
2022-09-26T23:19:04.887Z,13.19
2022-09-26T23:24:10.386Z,13.62
2022-09-26T23:29:14.498Z,12.96
2022-09-26T23:34:18.528Z,13.63
2022-09-26T23:39:24.432Z,13.82
2022-09-26T23:44:29.372Z,14.20
2022-09-26T23:49:33.229Z,13.81
2022-09-26T23:54:39.913Z,13.88
2022-09-26T23:59:43.781Z,13.08
